F/V Atalante — FVRQ — position and weather

sailwx.info

Track history (hours):
 
Tides and Currents Weather Stations Pressure Air Temp Water Temp Dewpoint Dewpoint Depression Visibility Wind Speed Wind Dir Waves Ship Positions

F/V Atalante

Last reported at 2016-Jul-20 05:33 UTC. Time now 2016-Jul-28 16:28 UTC.
Position N 47°21' W 002°31'.
Warning: this ship's position is 8 days out of date.

Length 21 m; draft 3.9 m.

Type: . MMSI: 228854000.

Date/timePositionNaut miles runAvg speedWind from/ knotsBaromVisibWave heightAir tempDewpointWater temp
2016-Jul-20 05:33N 47°21' W 002°31'0 0.0
2016-Jul-20 04:30N 47°21' W 002°31'0 0.0
2016-Jul-20 03:33N 47°21' W 002°31'0 0.0
2016-Jul-20 02:30N 47°21' W 002°31'0 0.0
2016-Jul-20 01:33N 47°21' W 002°31'0 0.0
2016-Jul-20 00:32N 47°21' W 002°31'0 0.0
2016-Jul-19 23:26N 47°21' W 002°31'0 0.0
2016-Jul-19 22:33N 47°21' W 002°31'0 0.0
2016-Jul-19 21:33N 47°21' W 002°31'0 0.0
2016-Jul-19 20:33N 47°21' W 002°31'0 0.0
2016-Jul-19 19:33N 47°21' W 002°31'0 0.0
2016-Jul-19 18:33N 47°21' W 002°31'0 0.0
2016-Jul-19 17:33N 47°21' W 002°31'0 0.0
2016-Jul-19 16:33N 47°21' W 002°31'0 0.0
2016-Jul-19 15:33N 47°21' W 002°31'0 0.0
2016-Jul-19 14:33N 47°21' W 002°31'0 0.0
2016-Jul-19 13:33N 47°21' W 002°31'0 0.0
2016-Jul-19 12:33N 47°21' W 002°31'0 0.0
2016-Jul-19 11:32N 47°21' W 002°31'0 0.0
2016-Jul-19 10:32N 47°21' W 002°31'0 0.0
2016-Jul-19 09:30N 47°21' W 002°31'0 0.0
2016-Jul-19 08:33N 47°21' W 002°31'  
2016-Jul-13 14:32N 47°21' W 002°31'1 0.8
2016-Jul-13 13:32N 47°20' W 002°31'1 0.1
2016-Jul-13 06:15N 47°21' W 002°31'0 0.0
2016-Jul-13 05:27N 47°21' W 002°31'6 6.8
2016-Jul-13 04:32N 47°16' W 002°36'6 6.3
2016-Jul-13 03:33N 47°10' W 002°40'8 7.6
2016-Jul-13 02:33N 47°04' W 002°47'7 7.5
2016-Jul-13 01:33N 46°58' W 002°52'6 3.0
2016-Jul-12 23:27N 46°52' W 002°58'12 2.9
2016-Jul-12 19:26N 47°01' W 002°46'8 8.9
2016-Jul-12 18:33N 47°08' W 002°42'9 9.3
2016-Jul-12 17:33N 47°17' W 002°36'6 5.6
2016-Jul-12 16:33N 47°21' W 002°31'0 0.0
2016-Jul-12 15:33N 47°21' W 002°31'0 0.0
2016-Jul-12 14:33N 47°21' W 002°31'0 0.0
2016-Jul-12 13:33N 47°21' W 002°31'0 0.0
2016-Jul-12 12:33N 47°21' W 002°31'0 0.0
2016-Jul-12 11:33N 47°21' W 002°31'1 1.2
2016-Jul-12 10:33N 47°20' W 002°32'7 6.6
2016-Jul-12 09:32N 47°14' W 002°29'6 6.5
2016-Jul-12 08:32N 47°09' W 002°22'1 0.6
2016-Jul-12 07:33N 47°09' W 002°23'1 1.4
2016-Jul-12 06:33N 47°08' W 002°24'4 4.0
2016-Jul-12 05:32N 47°11' W 002°27'9 9.3
2016-Jul-12 04:33N 47°19' W 002°34'3 2.9
2016-Jul-12 03:33N 47°21' W 002°31'0 0.0
2016-Jul-11 22:06N 47°21' W 002°31'0 0.3
2016-Jul-11 21:33N 47°21' W 002°31'8 7.6
2016-Jul-11 20:32N 47°13' W 002°29'5 5.6
2016-Jul-11 19:33N 47°09' W 002°24'1 0.6
2016-Jul-11 18:32N 47°09' W 002°25'2 1.8
2016-Jul-11 17:32N 47°08' W 002°22'0 0.4
2016-Jul-11 16:32N 47°09' W 002°23'0 0.4
2016-Jul-11 15:33N 47°09' W 002°22'1 1.0
2016-Jul-11 14:33N 47°08' W 002°23'4 4.3
2016-Jul-11 13:32N 47°08' W 002°29'9 9.0
2016-Jul-11 12:32N 47°09' W 002°42'3 3.0
2016-Jul-11 11:33N 47°11' W 002°45'3 3.3
2016-Jul-11 10:33N 47°09' W 002°41'6 5.6
2016-Jul-11 09:33N 47°14' W 002°37'8 8.0
2016-Jul-11 08:33N 47°21' W 002°31'0 0.0
2016-Jul-10 21:30N 47°21' W 002°31'4 3.8
2016-Jul-10 20:33N 47°20' W 002°36'1010.3
2016-Jul-10 19:33N 47°18' W 002°51'1010.4
2016-Jul-10 18:33N 47°22' W 003°05'1110.7
2016-Jul-10 17:33N 47°25' W 003°20'13 6.6
2016-Jul-10 15:31N 47°28' W 003°40'2 1.3
2016-Jul-10 14:12N 47°29' W 003°38'  
Track history (hours):
 
Tides and Currents Weather Stations Pressure Air Temp Water Temp Dewpoint Dewpoint Depression Visibility Wind Speed Wind Dir Waves Ship Positions

F/V Atalante

Last reported at 2016-Jul-20 05:33 UTC. Time now 2016-Jul-28 16:28 UTC.
Position N 47°21' W 002°31'.
Warning: this ship's position is 8 days out of date.

Length 21 m; draft 3.9 m.

Type: . MMSI: 228854000.

Date/timePositionNaut miles runAvg speedWind from/ knotsBaromVisibWave heightAir tempDewpointWater temp
2016-Jul-20 05:33N 47°21' W 002°31'0 0.0
2016-Jul-20 04:30N 47°21' W 002°31'0 0.0
2016-Jul-20 03:33N 47°21' W 002°31'0 0.0
2016-Jul-20 02:30N 47°21' W 002°31'0 0.0
2016-Jul-20 01:33N 47°21' W 002°31'0 0.0
2016-Jul-20 00:32N 47°21' W 002°31'0 0.0
2016-Jul-19 23:26N 47°21' W 002°31'0 0.0
2016-Jul-19 22:33N 47°21' W 002°31'0 0.0
2016-Jul-19 21:33N 47°21' W 002°31'0 0.0
2016-Jul-19 20:33N 47°21' W 002°31'0 0.0
2016-Jul-19 19:33N 47°21' W 002°31'0 0.0
2016-Jul-19 18:33N 47°21' W 002°31'0 0.0
2016-Jul-19 17:33N 47°21' W 002°31'0 0.0
2016-Jul-19 16:33N 47°21' W 002°31'0 0.0
2016-Jul-19 15:33N 47°21' W 002°31'0 0.0
2016-Jul-19 14:33N 47°21' W 002°31'0 0.0
2016-Jul-19 13:33N 47°21' W 002°31'0 0.0
2016-Jul-19 12:33N 47°21' W 002°31'0 0.0
2016-Jul-19 11:32N 47°21' W 002°31'0 0.0
2016-Jul-19 10:32N 47°21' W 002°31'0 0.0
2016-Jul-19 09:30N 47°21' W 002°31'0 0.0
2016-Jul-19 08:33N 47°21' W 002°31'  
2016-Jul-13 14:32N 47°21' W 002°31'1 0.8
2016-Jul-13 13:32N 47°20' W 002°31'1 0.1
2016-Jul-13 06:15N 47°21' W 002°31'0 0.0
2016-Jul-13 05:27N 47°21' W 002°31'6 6.8
2016-Jul-13 04:32N 47°16' W 002°36'6 6.3
2016-Jul-13 03:33N 47°10' W 002°40'8 7.6
2016-Jul-13 02:33N 47°04' W 002°47'7 7.5
2016-Jul-13 01:33N 46°58' W 002°52'6 3.0
2016-Jul-12 23:27N 46°52' W 002°58'12 2.9
2016-Jul-12 19:26N 47°01' W 002°46'8 8.9
2016-Jul-12 18:33N 47°08' W 002°42'9 9.3
2016-Jul-12 17:33N 47°17' W 002°36'6 5.6
2016-Jul-12 16:33N 47°21' W 002°31'0 0.0
2016-Jul-12 15:33N 47°21' W 002°31'0 0.0
2016-Jul-12 14:33N 47°21' W 002°31'0 0.0
2016-Jul-12 13:33N 47°21' W 002°31'0 0.0
2016-Jul-12 12:33N 47°21' W 002°31'0 0.0
2016-Jul-12 11:33N 47°21' W 002°31'1 1.2
2016-Jul-12 10:33N 47°20' W 002°32'7 6.6
2016-Jul-12 09:32N 47°14' W 002°29'6 6.5
2016-Jul-12 08:32N 47°09' W 002°22'1 0.6
2016-Jul-12 07:33N 47°09' W 002°23'1 1.4
2016-Jul-12 06:33N 47°08' W 002°24'4 4.0
2016-Jul-12 05:32N 47°11' W 002°27'9 9.3
2016-Jul-12 04:33N 47°19' W 002°34'3 2.9
2016-Jul-12 03:33N 47°21' W 002°31'0 0.0
2016-Jul-11 22:06N 47°21' W 002°31'0 0.3
2016-Jul-11 21:33N 47°21' W 002°31'8 7.6
2016-Jul-11 20:32N 47°13' W 002°29'5 5.6
2016-Jul-11 19:33N 47°09' W 002°24'1 0.6
2016-Jul-11 18:32N 47°09' W 002°25'2 1.8
2016-Jul-11 17:32N 47°08' W 002°22'0 0.4
2016-Jul-11 16:32N 47°09' W 002°23'0 0.4
2016-Jul-11 15:33N 47°09' W 002°22'1 1.0
2016-Jul-11 14:33N 47°08' W 002°23'4 4.3
2016-Jul-11 13:32N 47°08' W 002°29'9 9.0
2016-Jul-11 12:32N 47°09' W 002°42'3 3.0
2016-Jul-11 11:33N 47°11' W 002°45'3 3.3
2016-Jul-11 10:33N 47°09' W 002°41'6 5.6
2016-Jul-11 09:33N 47°14' W 002°37'8 8.0
2016-Jul-11 08:33N 47°21' W 002°31'0 0.0
2016-Jul-10 21:30N 47°21' W 002°31'4 3.8
2016-Jul-10 20:33N 47°20' W 002°36'1010.3
2016-Jul-10 19:33N 47°18' W 002°51'1010.4
2016-Jul-10 18:33N 47°22' W 003°05'1110.7
2016-Jul-10 17:33N 47°25' W 003°20'13 6.6
2016-Jul-10 15:31N 47°28' W 003°40'2 1.3
2016-Jul-10 14:12N 47°29' W 003°38'  

Dump ship's entire track history